createdAt,value
2019-05-09T00:41:35.062Z,96989.20
2019-05-09T00:44:08.313Z,96997.02
2019-05-09T00:46:38.518Z,96995.28
2019-05-09T00:49:13.955Z,97000.02
2019-05-09T00:51:43.725Z,96995.16
2019-05-09T00:54:13.502Z,96997.63
2019-05-09T00:56:43.601Z,96993.26
2019-05-09T00:59:13.477Z,96996.88
2019-05-09T01:01:43.706Z,96989.20
2019-05-09T01:04:13.601Z,96991.39
2019-05-09T01:06:43.411Z,96994.70
2019-05-09T01:09:13.718Z,96995.04
2019-05-09T01:11:43.965Z,96995.16
2019-05-09T01:14:14.206Z,96998.34
2019-05-09T01:16:44.056Z,96990.78
2019-05-09T01:19:14.167Z,96989.87
2019-05-09T01:21:43.808Z,96991.18
2019-05-09T01:24:13.906Z,96990.44
2019-05-09T01:26:43.630Z,96997.78
2019-05-09T01:29:13.832Z,96993.72
2019-05-09T01:31:43.545Z,96986.19
2019-05-09T01:34:20.404Z,96979.16
2019-05-09T01:37:05.072Z,96985.87
2019-05-09T01:39:35.152Z,96979.35
2019-05-09T01:42:03.972Z,96992.38
2019-05-09T01:44:34.024Z,96988.22
2019-05-09T01:47:04.459Z,96988.46
2019-05-09T01:49:34.445Z,96984.86
2019-05-09T01:52:03.820Z,96984.43
2019-05-09T01:54:34.537Z,96983.01
2019-05-09T01:57:03.532Z,96984.13
2019-05-09T01:59:33.933Z,96977.40
2019-05-09T02:02:08.310Z,96977.25
2019-05-09T02:04:33.542Z,96976.44
2019-05-09T02:07:04.169Z,96979.36
2019-05-09T02:09:34.174Z,96981.86
2019-05-09T02:12:03.819Z,96984.30
2019-05-09T02:14:54.253Z,96979.51
2019-05-09T02:17:27.715Z,96987.62
2019-05-09T02:19:56.420Z,96984.59
2019-05-09T02:22:34.868Z,96986.92
2019-05-09T02:25:06.282Z,96986.31
2019-05-09T02:27:34.982Z,96986.78
2019-05-09T02:30:06.010Z,96980.43
2019-05-09T02:32:36.118Z,96977.02
2019-05-09T02:35:07.481Z,96979.88
2019-05-09T02:37:38.827Z,96973.01
2019-05-09T02:40:09.711Z,96980.66
2019-05-09T02:42:39.670Z,96974.55
2019-05-09T02:45:08.832Z,96976.83
2019-05-09T02:47:38.466Z,96969.83
2019-05-09T02:50:10.207Z,96971.20
2019-05-09T02:52:39.819Z,96968.37
2019-05-09T02:55:10.883Z,96971.91
2019-05-09T02:57:39.715Z,96973.24
2019-05-09T03:00:28.888Z,96968.41
2019-05-09T03:03:04.596Z,96962.89
2019-05-09T03:05:33.243Z,96965.65
2019-05-09T03:08:01.884Z,96973.69
2019-05-09T03:10:30.497Z,96972.59
2019-05-09T03:12:59.623Z,96977.45
2019-05-09T03:15:29.435Z,96975.70
2019-05-09T03:17:59.827Z,96972.36
2019-05-09T03:20:33.336Z,96976.39
2019-05-09T03:23:02.020Z,96965.80
2019-05-09T03:25:31.105Z,96966.00
2019-05-09T03:28:10.666Z,96970.87
2019-05-09T03:30:40.881Z,96973.11
2019-05-09T03:33:10.548Z,96965.09
2019-05-09T03:35:39.355Z,96968.86
2019-05-09T03:38:08.513Z,96962.11
2019-05-09T03:40:37.998Z,96959.73
2019-05-09T03:43:08.146Z,96966.91
2019-05-09T03:45:54.037Z,96968.73
2019-05-09T03:48:24.330Z,96973.11
2019-05-09T03:50:52.895Z,96967.85
2019-05-09T03:53:21.584Z,96964.57
2019-05-09T03:55:52.122Z,96959.44
2019-05-09T03:58:21.446Z,96956.70
2019-05-09T04:00:50.209Z,96961.75
2019-05-09T04:03:20.353Z,96948.20
2019-05-09T04:05:59.114Z,96950.87
2019-05-09T04:08:20.196Z,96947.64
2019-05-09T04:10:53.219Z,96948.30
2019-05-09T04:13:24.518Z,96947.22
2019-05-09T04:15:53.088Z,96946.70
2019-05-09T04:18:21.705Z,96953.71
2019-05-09T04:20:50.354Z,96953.92
2019-05-09T04:23:18.989Z,96960.93
2019-05-09T04:25:52.134Z,96956.84
2019-05-09T04:28:20.880Z,96960.33
2019-05-09T04:30:49.599Z,96960.12
2019-05-09T04:33:18.286Z,96957.37
2019-05-09T04:35:47.555Z,96954.57
2019-05-09T04:38:17.956Z,96959.80
2019-05-09T04:40:48.827Z,96952.34
2019-05-09T04:43:26.664Z,96954.72
2019-05-09T04:46:01.515Z,96953.75
2019-05-09T04:48:34.833Z,96945.51
2019-05-09T04:51:07.822Z,96941.06
2019-05-09T04:53:37.651Z,96938.54
2019-05-09T04:56:14.219Z,96941.30
2019-05-09T04:58:43.020Z,96941.06
2019-05-09T05:01:13.402Z,96937.44
2019-05-09T05:03:45.173Z,96939.28
2019-05-09T05:06:13.824Z,96937.72
2019-05-09T05:08:42.465Z,96927.94
2019-05-09T05:11:11.186Z,96930.17
2019-05-09T05:13:40.043Z,96925.47
2019-05-09T05:16:09.305Z,96920.81
2019-05-09T05:18:38.009Z,96925.88
2019-05-09T05:21:07.800Z,96923.36
2019-05-09T05:23:50.749Z,96920.10
2019-05-09T05:26:20.975Z,96917.73
2019-05-09T05:28:49.651Z,96915.97
2019-05-09T05:31:18.399Z,96913.35
2019-05-09T05:33:57.897Z,96908.17
2019-05-09T05:36:27.972Z,96905.50
2019-05-09T05:38:58.477Z,96895.72
2019-05-09T05:41:28.505Z,96890.13
2019-05-09T05:43:58.052Z,96891.04
2019-05-09T05:46:28.687Z,96888.34
2019-05-09T05:48:57.942Z,96888.88
2019-05-09T05:51:27.690Z,96889.36
2019-05-09T05:53:57.363Z,96895.42
2019-05-09T05:56:28.000Z,96893.55
2019-05-09T05:58:58.097Z,96895.08
2019-05-09T06:01:27.807Z,96885.34
2019-05-09T06:03:58.642Z,96887.14
2019-05-09T06:06:27.957Z,96876.95
2019-05-09T06:08:57.904Z,96874.92
2019-05-09T06:11:28.103Z,96870.76
2019-05-09T06:14:04.397Z,96859.64
2019-05-09T06:16:28.131Z,96856.91
2019-05-09T06:18:58.559Z,96849.12
2019-05-09T06:21:28.252Z,96850.09
2019-05-09T06:23:58.389Z,96850.19
2019-05-09T06:26:29.373Z,96837.80
2019-05-09T06:28:58.214Z,96842.84
2019-05-09T06:31:28.454Z,96841.47
2019-05-09T06:33:57.891Z,96830.52
2019-05-09T06:36:28.345Z,96829.64
2019-05-09T06:38:58.786Z,96835.19
2019-05-09T06:41:28.539Z,96835.82
2019-05-09T06:44:19.699Z,96833.02
2019-05-09T06:46:52.094Z,96834.25
2019-05-09T06:49:28.330Z,96828.63
2019-05-09T06:51:52.882Z,96824.64
2019-05-09T06:54:21.532Z,96822.91
2019-05-09T06:56:50.167Z,96824.45
2019-05-09T06:59:19.064Z,96814.18
2019-05-09T07:01:58.976Z,96814.56
2019-05-09T07:04:29.244Z,96818.50
2019-05-09T07:07:08.702Z,96808.55
2019-05-09T07:09:39.015Z,96816.95
2019-05-09T07:12:08.083Z,96809.78
2019-05-09T07:14:40.977Z,96810.62
2019-05-09T07:17:08.425Z,96808.35
2019-05-09T07:19:38.325Z,96809.95
2019-05-09T07:22:09.314Z,96808.75
2019-05-09T07:25:06.009Z,96804.22
2019-05-09T07:27:29.883Z,96799.43
2019-05-09T07:30:00.144Z,96796.64
2019-05-09T07:32:30.495Z,96792.41
2019-05-09T07:35:00.766Z,96791.55
2019-05-09T07:37:29.491Z,96791.51
2019-05-09T07:39:58.249Z,96791.91
2019-05-09T07:42:28.480Z,96790.60
2019-05-09T07:44:59.160Z,96786.39
2019-05-09T07:47:28.248Z,96778.97
2019-05-09T07:49:58.574Z,96780.88
2019-05-09T07:52:28.412Z,96776.01
2019-05-09T07:54:58.010Z,96778.63
2019-05-09T07:57:28.541Z,96769.72
2019-05-09T07:59:58.447Z,96765.41
2019-05-09T08:02:28.186Z,96761.67
2019-05-09T08:04:58.241Z,96762.41
2019-05-09T08:07:29.026Z,96760.72
2019-05-09T08:09:59.762Z,96760.93
2019-05-09T08:12:29.159Z,96759.47
2019-05-09T08:15:08.524Z,96758.15
2019-05-09T08:17:31.844Z,96755.27
2019-05-09T08:20:03.664Z,96749.02
2019-05-09T08:22:32.874Z,96739.61
2019-05-09T08:25:01.857Z,96731.36
2019-05-09T08:27:30.498Z,96744.77
2019-05-09T08:29:59.130Z,96734.62
2019-05-09T08:32:28.737Z,96734.82
2019-05-09T08:34:57.810Z,96729.84
2019-05-09T08:37:28.245Z,96724.66
2019-05-09T08:39:57.845Z,96720.56
2019-05-09T08:42:26.637Z,96713.59
2019-05-09T08:44:57.609Z,96708.45
2019-05-09T08:47:27.816Z,96710.90
2019-05-09T08:50:17.643Z,96704.46
2019-05-09T08:52:48.166Z,96711.41
2019-05-09T08:55:17.500Z,96706.95
2019-05-09T08:57:48.167Z,96699.68
2019-05-09T09:00:18.948Z,96695.07
2019-05-09T09:02:48.178Z,96692.92
2019-05-09T09:05:18.726Z,96692.92
2019-05-09T09:07:48.674Z,96687.38
2019-05-09T09:10:18.813Z,96683.97
2019-05-09T09:12:48.046Z,96685.98
2019-05-09T09:15:18.035Z,96679.25
2019-05-09T09:17:49.064Z,96663.42
2019-05-09T09:20:18.278Z,96678.92
2019-05-09T09:22:48.035Z,96671.91
2019-05-09T09:25:18.378Z,96684.48
2019-05-09T09:27:51.012Z,96661.78
2019-05-09T09:30:24.657Z,96670.20
2019-05-09T09:32:49.379Z,96673.13
2019-05-09T09:35:18.782Z,96671.73
2019-05-09T09:37:51.828Z,96668.24
2019-05-09T09:40:18.369Z,96664.97
2019-05-09T09:42:48.993Z,96668.59
2019-05-09T09:45:18.325Z,96672.14
2019-05-09T09:47:48.171Z,96680.83
2019-05-09T09:50:17.835Z,96677.45
2019-05-09T09:52:49.182Z,96674.30
2019-05-09T09:55:18.454Z,96667.24
2019-05-09T09:57:48.605Z,96664.92
2019-05-09T10:00:27.689Z,96669.27
2019-05-09T10:02:58.549Z,96665.88
2019-05-09T10:05:27.801Z,96662.42
2019-05-09T10:07:58.207Z,96663.08
2019-05-09T10:10:35.709Z,96663.28
2019-05-09T10:13:05.038Z,96658.82
2019-05-09T10:15:52.087Z,96657.43
2019-05-09T10:18:27.665Z,96655.76
2019-05-09T10:21:12.870Z,96660.06
2019-05-09T10:23:41.616Z,96659.25
2019-05-09T10:26:11.491Z,96651.56
2019-05-09T10:28:40.147Z,96637.95
2019-05-09T10:31:09.216Z,96639.05
2019-05-09T10:33:37.956Z,96640.30
2019-05-09T10:36:08.545Z,96636.48
2019-05-09T10:38:38.618Z,96638.05
2019-05-09T10:41:11.160Z,96636.91
2019-05-09T10:43:43.415Z,96643.75
2019-05-09T10:46:19.229Z,96643.44
2019-05-09T10:48:48.725Z,96645.71
2019-05-09T10:51:18.580Z,96648.61
2019-05-09T10:53:48.239Z,96645.39
2019-05-09T10:56:18.787Z,96650.08
2019-05-09T10:58:48.267Z,96656.80
2019-05-09T11:01:18.595Z,96654.09
2019-05-09T11:03:48.253Z,96658.12
2019-05-09T11:06:18.417Z,96662.98
2019-05-09T11:08:47.980Z,96662.73
2019-05-09T11:11:18.166Z,96661.28
2019-05-09T11:13:48.164Z,96659.73
2019-05-09T11:16:18.320Z,96666.87
2019-05-09T11:18:48.442Z,96661.61
2019-05-09T11:21:19.162Z,96654.80
2019-05-09T11:23:49.016Z,96654.03
2019-05-09T11:26:18.246Z,96651.91
2019-05-09T11:28:47.176Z,96655.95
2019-05-09T11:31:18.474Z,96644.16
2019-05-09T11:33:48.478Z,96657.42
2019-05-09T11:36:20.744Z,96657.80
2019-05-09T11:38:49.400Z,96658.00
2019-05-09T11:41:19.258Z,96655.48
2019-05-09T11:43:48.743Z,96658.04
2019-05-09T11:46:18.351Z,96655.84
2019-05-09T11:48:47.407Z,96656.13
2019-05-09T11:51:20.358Z,96665.02
2019-05-09T11:53:48.757Z,96657.84
2019-05-09T11:56:18.129Z,96674.92
2019-05-09T11:58:48.128Z,96674.36
2019-05-09T12:01:19.128Z,96684.74
2019-05-09T12:03:51.971Z,96678.30
2019-05-09T12:06:20.230Z,96672.76
2019-05-09T12:08:50.206Z,96679.91
2019-05-09T12:11:19.053Z,96681.59
2019-05-09T12:13:50.245Z,96682.27
2019-05-09T12:16:19.139Z,96676.35
2019-05-09T12:18:48.783Z,96684.50
2019-05-09T12:21:19.155Z,96677.11
2019-05-09T12:23:51.301Z,96676.16
2019-05-09T12:26:30.744Z,96672.33
2019-05-09T12:29:05.727Z,96667.44
2019-05-09T12:31:38.904Z,96670.02
2019-05-09T12:34:13.200Z,96672.55
2019-05-09T12:36:43.651Z,96675.62
2019-05-09T12:39:13.082Z,96671.97
2019-05-09T12:41:41.745Z,96672.77
2019-05-09T12:44:12.007Z,96665.94
2019-05-09T12:46:42.301Z,96656.83
2019-05-09T12:49:10.960Z,96657.77
2019-05-09T12:51:39.708Z,96660.19
2019-05-09T12:54:11.050Z,96654.70
2019-05-09T12:56:39.714Z,96652.43
2019-05-09T12:59:09.565Z,96651.86
2019-05-09T13:01:41.002Z,96656.34
2019-05-09T13:04:09.755Z,96656.44
2019-05-09T13:06:38.712Z,96648.21
2019-05-09T13:09:08.425Z,96649.77
2019-05-09T13:11:39.081Z,96644.31
2019-05-09T13:14:09.961Z,96642.92
2019-05-09T13:16:49.259Z,96640.46
2019-05-09T13:19:14.529Z,96637.27
2019-05-09T13:21:43.251Z,96644.22
2019-05-09T13:24:11.956Z,96644.00
2019-05-09T13:26:41.402Z,96637.57
2019-05-09T13:29:10.078Z,96632.96
2019-05-09T13:31:39.656Z,96637.81
2019-05-09T13:34:08.690Z,96636.78
2019-05-09T13:36:37.254Z,96637.57
2019-05-09T13:39:09.714Z,96625.56
2019-05-09T13:41:39.718Z,96618.84
2019-05-09T13:44:13.481Z,96613.63
2019-05-09T13:46:39.106Z,96609.85
2019-05-09T13:49:12.436Z,96602.75
2019-05-09T13:51:49.695Z,96600.53
2019-05-09T13:54:08.680Z,96597.86
2019-05-09T13:56:37.249Z,96595.03
2019-05-09T13:59:08.302Z,96595.28
2019-05-09T14:01:38.175Z,96601.36
2019-05-09T14:04:07.898Z,96601.22
2019-05-09T14:06:38.663Z,96601.95
2019-05-09T14:09:10.513Z,96610.21
2019-05-09T14:11:39.616Z,96602.34
2019-05-09T14:14:08.264Z,96599.85
2019-05-09T14:16:38.971Z,96602.16
2019-05-09T14:19:26.230Z,96597.79
2019-05-09T14:21:37.814Z,96595.28
2019-05-09T14:24:14.455Z,96591.83
2019-05-09T14:26:36.969Z,96587.50
2019-05-09T14:29:05.872Z,96582.53
2019-05-09T14:31:34.638Z,96567.36
2019-05-09T14:34:03.285Z,96564.65
2019-05-09T14:36:32.977Z,96561.39
2019-05-09T14:39:01.708Z,96557.06
2019-05-09T14:41:30.340Z,96553.80
2019-05-09T14:43:59.849Z,96545.55
2019-05-09T14:46:28.697Z,96532.55
2019-05-09T14:48:58.416Z,96532.64
2019-05-09T14:51:28.430Z,96524.39
2019-05-09T14:53:59.359Z,96519.45
2019-05-09T14:56:28.254Z,96522.06
2019-05-09T14:58:58.129Z,96510.83
2019-05-09T15:01:28.796Z,96487.87
2019-05-09T15:03:58.543Z,96485.92
2019-05-09T15:06:28.336Z,96480.09
2019-05-09T15:08:58.096Z,96470.55
2019-05-09T15:11:28.135Z,96467.84
2019-05-09T15:13:58.514Z,96462.21
2019-05-09T15:16:28.210Z,96468.13
2019-05-09T15:18:58.408Z,96461.66
2019-05-09T15:21:27.521Z,96456.38
2019-05-09T15:23:58.453Z,96451.10
2019-05-09T15:26:27.578Z,96450.41
2019-05-09T15:28:57.885Z,96441.72
2019-05-09T15:31:28.619Z,96433.86
2019-05-09T15:33:57.058Z,96431.81
2019-05-09T15:36:25.745Z,96431.52
2019-05-09T15:38:54.390Z,96431.33
2019-05-09T15:41:23.046Z,96425.59
2019-05-09T15:43:51.737Z,96429.13
2019-05-09T15:46:21.905Z,96424.23
2019-05-09T15:48:50.531Z,96425.86
2019-05-09T15:51:19.283Z,96422.67
2019-05-09T15:53:48.674Z,96411.94
2019-05-09T15:56:18.821Z,96416.95
2019-05-09T15:58:49.073Z,96432.23
2019-05-09T16:01:18.450Z,96429.16
2019-05-09T16:03:48.536Z,96420.56
2019-05-09T16:06:19.771Z,96423.34
2019-05-09T16:08:47.973Z,96419.28
2019-05-09T16:11:18.060Z,96411.30
2019-05-09T16:13:47.963Z,96406.09
2019-05-09T16:16:17.753Z,96394.31
2019-05-09T16:18:48.686Z,96397.23
2019-05-09T16:21:17.019Z,96399.01
2019-05-09T16:23:48.647Z,96395.44
2019-05-09T16:26:18.107Z,96385.25
2019-05-09T16:28:48.751Z,96393.10
2019-05-09T16:31:17.638Z,96399.01
2019-05-09T16:33:47.715Z,96396.27
2019-05-09T16:36:17.584Z,96399.91
2019-05-09T16:38:48.996Z,96394.94
2019-05-09T16:41:18.484Z,96406.94
2019-05-09T16:43:47.930Z,96411.34
2019-05-09T16:46:18.163Z,96408.64
2019-05-09T16:48:47.615Z,96411.61
2019-05-09T16:51:18.214Z,96414.71
2019-05-09T16:53:47.536Z,96416.58
2019-05-09T16:56:18.031Z,96418.24
2019-05-09T16:58:47.045Z,96425.44
2019-05-09T17:01:18.586Z,96429.36
2019-05-09T17:03:46.668Z,96437.78
2019-05-09T17:06:18.400Z,96426.48
2019-05-09T17:08:47.562Z,96424.14
2019-05-09T17:11:19.128Z,96421.63
2019-05-09T17:13:47.042Z,96423.41
2019-05-09T17:16:17.751Z,96419.20
2019-05-09T17:18:48.461Z,96409.00
2019-05-09T17:21:24.521Z,96399.09
2019-05-09T17:23:53.794Z,96389.73
2019-05-09T17:26:22.473Z,96393.19
2019-05-09T17:28:51.208Z,96400.76
2019-05-09T17:31:19.929Z,96399.28
2019-05-09T17:33:48.729Z,96401.43
2019-05-09T17:36:18.179Z,96398.42
2019-05-09T17:38:47.859Z,96395.91
2019-05-09T17:41:17.726Z,96398.25
2019-05-09T17:43:47.487Z,96401.04
2019-05-09T17:46:18.965Z,96403.85
2019-05-09T17:48:47.964Z,96397.70
2019-05-09T17:51:25.905Z,96394.33
2019-05-09T17:53:51.856Z,96393.02
2019-05-09T17:56:17.740Z,96394.69
2019-05-09T17:58:48.415Z,96399.91
2019-05-09T18:01:18.015Z,96391.42
2019-05-09T18:03:48.097Z,96400.00
2019-05-09T18:06:19.165Z,96394.13
2019-05-09T18:08:48.412Z,96397.03
2019-05-09T18:11:17.495Z,96395.52
2019-05-09T18:16:31.920Z,96389.80
2019-05-09T18:19:00.939Z,96387.78
2019-05-09T18:25:11.521Z,96379.09
2019-05-09T18:27:51.153Z,96380.76
2019-05-09T18:30:20.119Z,96378.02
2019-05-09T18:32:50.432Z,96386.19
2019-05-09T18:35:23.119Z,96385.05
2019-05-09T18:37:51.901Z,96379.64
2019-05-09T18:40:20.860Z,96380.28
2019-05-09T18:42:49.514Z,96377.78
2019-05-09T18:45:19.582Z,96382.27
2019-05-09T18:47:48.401Z,96388.41
2019-05-09T18:50:18.552Z,96390.59
2019-05-09T18:52:50.149Z,96384.88
2019-05-09T18:55:24.169Z,96391.52
2019-05-09T18:57:56.928Z,96391.52
2019-05-09T19:00:28.644Z,96392.27
2019-05-09T19:02:59.479Z,96394.05
2019-05-09T19:05:33.371Z,96392.07
2019-05-09T19:08:02.050Z,96399.09
2019-05-09T19:10:32.290Z,96401.51
2019-05-09T19:13:02.475Z,96406.19
2019-05-09T19:15:35.554Z,96411.70
2019-05-09T19:18:11.380Z,96413.48
2019-05-09T19:20:49.279Z,96416.86
2019-05-09T19:23:19.761Z,96421.35
2019-05-09T19:25:48.417Z,96420.69
2019-05-09T19:28:18.665Z,96422.66
2019-05-09T19:30:54.916Z,96424.80
2019-05-09T19:33:23.660Z,96420.03
2019-05-09T19:35:54.082Z,96406.75
2019-05-09T19:38:22.807Z,96408.59
2019-05-09T19:40:51.525Z,96417.22
2019-05-09T19:43:24.100Z,96418.41
2019-05-09T19:45:52.807Z,96431.39
2019-05-09T19:48:21.389Z,96425.81
2019-05-09T19:50:50.058Z,96414.77
2019-05-09T19:53:21.300Z,96416.36
2019-05-09T19:55:49.885Z,96420.01
2019-05-09T19:58:18.449Z,96427.61
2019-05-09T20:00:56.889Z,96430.07
2019-05-09T20:03:25.516Z,96440.65
2019-05-09T20:05:54.140Z,96435.48
2019-05-09T20:08:23.201Z,96433.36
2019-05-09T20:11:07.025Z,96429.17
2019-05-09T20:13:40.403Z,96427.84
2019-05-09T20:16:09.122Z,96437.88
2019-05-09T20:18:37.790Z,96448.70
2019-05-09T20:21:09.298Z,96443.32
2019-05-09T20:23:37.828Z,96448.66
2019-05-09T20:26:15.863Z,96440.20
2019-05-09T20:28:44.590Z,96423.02
2019-05-09T20:31:13.108Z,96424.34
2019-05-09T20:33:41.628Z,96420.70
2019-05-09T20:36:11.811Z,96426.98
2019-05-09T20:38:42.221Z,96436.31
2019-05-09T20:41:10.903Z,96434.17
2019-05-09T20:43:51.637Z,96410.63
2019-05-09T20:46:21.661Z,96400.12
2019-05-09T20:48:50.323Z,96410.54
2019-05-09T20:51:19.162Z,96422.92
2019-05-09T20:53:50.215Z,96420.30
2019-05-09T20:56:23.118Z,96416.38
2019-05-09T20:58:56.166Z,96418.77
2019-05-09T21:01:26.512Z,96422.85
2019-05-09T21:04:00.057Z,96418.91
2019-05-09T21:06:26.751Z,96417.23
2019-05-09T21:08:55.582Z,96415.50
2019-05-09T21:11:36.663Z,96411.09
2019-05-09T21:14:07.353Z,96405.34
2019-05-09T21:16:37.633Z,96413.91
2019-05-09T21:19:06.452Z,96413.05
2019-05-09T21:21:38.087Z,96406.53
2019-05-09T21:24:08.798Z,96408.88
2019-05-09T21:26:40.799Z,96408.92
2019-05-09T21:29:12.718Z,96406.77
2019-05-09T21:31:41.639Z,96408.53
2019-05-09T21:34:10.499Z,96399.94
2019-05-09T21:36:43.545Z,96401.53
2019-05-09T21:39:13.875Z,96403.10
2019-05-09T21:41:42.391Z,96396.53
2019-05-09T21:44:11.013Z,96391.30
2019-05-09T21:46:42.178Z,96388.28
2019-05-09T21:49:10.834Z,96395.98
2019-05-09T21:51:42.215Z,96395.91
2019-05-09T21:54:10.790Z,96398.67
2019-05-09T21:56:41.095Z,96401.50
2019-05-09T21:59:09.789Z,96404.53
2019-05-09T22:01:41.198Z,96411.23
2019-05-09T22:04:09.923Z,96411.73
2019-05-09T22:06:40.269Z,96408.55
2019-05-09T22:09:10.389Z,96413.73
2019-05-09T22:11:39.026Z,96410.21
2019-05-09T22:14:07.746Z,96415.11
2019-05-09T22:16:36.480Z,96407.62
2019-05-09T22:19:05.099Z,96411.92
2019-05-09T22:21:38.474Z,96413.30
2019-05-09T22:24:07.066Z,96414.48
2019-05-09T22:26:35.729Z,96417.88
2019-05-09T22:29:07.720Z,96414.35
2019-05-09T22:31:37.901Z,96415.44
2019-05-09T22:34:06.472Z,96415.48
2019-05-09T22:36:35.167Z,96414.98
2019-05-09T22:39:05.284Z,96416.12
2019-05-09T22:41:33.935Z,96415.16
2019-05-09T22:44:02.620Z,96406.94
2019-05-09T22:46:31.330Z,96405.63
2019-05-09T22:49:05.138Z,96399.72
2019-05-09T22:51:39.723Z,96401.56
2019-05-09T22:54:12.759Z,96401.86
2019-05-09T22:56:38.704Z,96408.57
2019-05-09T22:59:11.515Z,96404.70
2019-05-09T23:01:41.622Z,96409.48
2019-05-09T23:04:11.906Z,96413.19
2019-05-09T23:06:40.518Z,96410.39
2019-05-09T23:09:09.169Z,96409.30
2019-05-09T23:11:40.625Z,96416.59
2019-05-09T23:14:11.421Z,96414.38
2019-05-09T23:16:41.177Z,96413.52
2019-05-09T23:19:09.815Z,96403.36
2019-05-09T23:21:38.575Z,96405.02
2019-05-09T23:24:08.847Z,96404.55
2019-05-09T23:26:42.302Z,96401.10
2019-05-09T23:29:10.932Z,96402.21
2019-05-09T23:31:42.711Z,96405.13
2019-05-09T23:34:11.354Z,96404.84
2019-05-09T23:36:42.521Z,96410.10
2019-05-09T23:39:15.972Z,96412.13
2019-05-09T23:41:45.983Z,96404.19
2019-05-09T23:44:14.562Z,96401.89
2019-05-09T23:46:45.623Z,96397.14
2019-05-09T23:49:14.324Z,96394.38
2019-05-09T23:51:46.079Z,96399.42
2019-05-09T23:54:45.191Z,96395.22
2019-05-09T23:57:25.120Z,96393.13
